Time;durP1;ratioP1;P1;durP2;ratioP2;P2;SDS_P1;SDS_P2;PMS_P1;PMS_P2;Temp;Humidity;BMP_temperature;BMP_pressure;BME280_temperature;BME280_humidity;BME280_pressure;Samples;Min_cycle;Max_cycle;Signal;HPM_P1;HPM_P2
2021/08/30 00:01:46;;;;;;;3.03;1.83;;;20.90;61.00;;;;;;5042865;28;20033;-70
2021/08/30 00:04:13;;;;;;;4.65;2.30;;;21.00;60.90;;;;;;5041652;28;20029;-70
2021/08/30 00:06:41;;;;;;;4.20;2.30;;;20.90;60.90;;;;;;5040788;28;20051;-70
2021/08/30 00:09:09;;;;;;;4.03;2.17;;;20.90;60.80;;;;;;5039787;28;20038;-70
2021/08/30 00:11:35;;;;;;;4.18;2.17;;;20.90;60.80;;;;;;5041837;28;20048;-70
2021/08/30 00:14:02;;;;;;;5.57;2.42;;;20.90;60.70;;;;;;5032481;28;20032;-70
2021/08/30 00:16:29;;;;;;;4.43;2.22;;;20.90;60.60;;;;;;5038170;28;20036;-70
2021/08/30 00:18:56;;;;;;;3.92;2.10;;;20.80;60.70;;;;;;5041533;28;20026;-70
2021/08/30 00:21:23;;;;;;;5.75;2.22;;;20.90;60.80;;;;;;5040182;28;20041;-69
2021/08/30 00:23:50;;;;;;;3.40;2.45;;;20.80;60.80;;;;;;5042149;28;20048;-71
2021/08/30 00:26:17;;;;;;;5.07;2.00;;;20.80;60.80;;;;;;5041291;28;20021;-70
2021/08/30 00:28:43;;;;;;;3.38;2.20;;;20.80;60.80;;;;;;5040039;28;20050;-70
2021/08/30 00:31:16;;;;;;;3.13;1.90;;;20.80;60.80;;;;;;5039720;28;20052;-69
2021/08/30 00:33:42;;;;;;;4.57;2.47;;;20.80;60.80;;;;;;5042081;28;20036;-70
2021/08/30 00:36:09;;;;;;;5.50;2.03;;;20.70;60.70;;;;;;5041107;28;20048;-70
2021/08/30 00:38:36;;;;;;;2.85;1.85;;;20.80;60.60;;;;;;5040199;28;20029;-70
2021/08/30 00:41:03;;;;;;;3.88;2.28;;;20.80;60.60;;;;;;5040086;28;20040;-70
2021/08/30 00:43:30;;;;;;;4.05;2.47;;;20.80;60.70;;;;;;5040164;28;20037;-70
2021/08/30 00:45:56;;;;;;;3.55;2.20;;;20.80;60.80;;;;;;5039685;28;20524;-70
2021/08/30 00:48:22;;;;;;;2.95;2.28;;;20.70;60.90;;;;;;5042117;28;20044;-70
2021/08/30 00:50:49;;;;;;;5.75;2.17;;;20.70;61.00;;;;;;5040279;28;20033;-71
2021/08/30 00:53:16;;;;;;;4.00;2.13;;;20.70;61.10;;;;;;5040561;28;20032;-70
2021/08/30 00:55:43;;;;;;;2.67;1.73;;;20.70;60.90;;;;;;5041891;28;20048;-71
2021/08/30 00:58:09;;;;;;;4.90;1.83;;;20.70;60.90;;;;;;5040183;28;20091;-70
2021/08/30 01:00:36;;;;;;;5.32;2.47;;;20.70;60.70;;;;;;5041067;28;20043;-69
2021/08/30 01:03:02;;;;;;;3.53;2.35;;;20.70;60.70;;;;;;5040348;28;20045;-69
2021/08/30 01:05:29;;;;;;;3.55;2.40;;;20.70;60.60;;;;;;5040485;28;20508;-69
2021/08/30 01:08:11;;;;;;;3.05;1.92;;;20.70;60.70;;;;;;5041115;28;20029;-69
2021/08/30 01:10:47;;;;;;;3.38;2.50;;;20.70;60.80;;;;;;5040882;28;20029;-70
2021/08/30 01:13:26;;;;;;;4.90;1.85;;;20.70;61.00;;;;;;5040527;28;20029;-70
2021/08/30 01:15:54;;;;;;;4.67;1.97;;;20.70;61.00;;;;;;5040723;28;20037;-70
2021/08/30 01:18:23;;;;;;;2.92;2.10;;;20.60;61.20;;;;;;5040408;28;20743;-70
2021/08/30 01:21:09;;;;;;;3.67;2.22;;;20.60;61.20;;;;;;5040442;28;20051;-70
2021/08/30 01:23:38;;;;;;;3.58;2.55;;;20.60;61.20;;;;;;5040892;28;20032;-68
2021/08/30 01:26:07;;;;;;;3.53;2.00;;;20.60;61.20;;;;;;5036720;28;20045;-70
2021/08/30 01:28:38;;;;;;;2.88;2.13;;;20.60;61.30;;;;;;5031069;28;20374;-70
2021/08/30 01:31:19;;;;;;;3.70;1.88;;;20.50;61.20;;;;;;5030477;28;20053;-70
2021/08/30 01:33:49;;;;;;;4.05;2.03;;;20.50;61.40;;;;;;5030779;28;20048;-70
2021/08/30 01:36:19;;;;;;;5.72;1.90;;;20.50;61.30;;;;;;5031466;28;20041;-70
2021/08/30 01:38:48;;;;;;;4.47;2.30;;;20.50;61.40;;;;;;5032417;28;20028;-70
2021/08/30 01:41:16;;;;;;;3.13;1.98;;;20.50;61.40;;;;;;5031341;28;20036;-70
2021/08/30 01:43:47;;;;;;;3.35;2.17;;;20.50;61.30;;;;;;5032436;28;20041;-70
2021/08/30 01:46:15;;;;;;;3.17;2.00;;;20.50;61.40;;;;;;5035181;28;20030;-70
2021/08/30 01:48:48;;;;;;;3.65;2.00;;;20.50;61.40;;;;;;5034162;28;20370;-70
2021/08/30 01:51:23;;;;;;;8.13;2.63;;;20.50;61.40;;;;;;5035723;28;20033;-70
2021/08/30 01:53:53;;;;;;;4.88;2.45;;;20.40;61.20;;;;;;5034681;28;20045;-70
2021/08/30 01:56:21;;;;;;;6.85;3.05;;;20.40;61.30;;;;;;5035349;28;20052;-70
2021/08/30 02:01:35;;;;;;;2.92;2.03;;;20.40;61.50;;;;;;5035200;28;20042;-70
2021/08/30 02:04:02;;;;;;;3.05;2.17;;;20.40;61.50;;;;;;5035722;28;20425;-70
2021/08/30 02:06:30;;;;;;;2.72;1.88;;;20.40;61.70;;;;;;5034115;28;20048;-70
2021/08/30 02:08:57;;;;;;;5.68;2.38;;;20.40;61.50;;;;;;5035232;28;20060;-70
2021/08/30 02:11:33;;;;;;;4.95;2.17;;;20.40;61.70;;;;;;5035408;28;20033;-70
2021/08/30 02:14:01;;;;;;;5.40;1.90;;;20.30;61.60;;;;;;5033534;28;20046;-70
2021/08/30 02:16:28;;;;;;;2.90;2.00;;;20.30;61.60;;;;;;5034061;28;20045;-70
2021/08/30 02:19:02;;;;;;;3.03;1.80;;;20.30;61.70;;;;;;5033035;28;20057;-70
2021/08/30 02:21:41;;;;;;;5.03;2.50;;;20.30;61.60;;;;;;5034590;28;20029;-70
2021/08/30 02:24:29;;;;;;;2.35;1.65;;;20.30;61.60;;;;;;5033699;28;20060;-70
2021/08/30 02:27:13;;;;;;;4.55;2.22;;;20.30;61.70;;;;;;5035280;28;20040;-70
2021/08/30 02:29:44;;;;;;;3.22;2.03;;;20.30;61.80;;;;;;5035056;28;20064;-70
2021/08/30 02:32:13;;;;;;;3.65;2.00;;;20.30;61.80;;;;;;5035062;28;20343;-70
2021/08/30 02:34:47;;;;;;;3.30;1.92;;;20.30;61.80;;;;;;5033581;28;20052;-70
2021/08/30 02:37:15;;;;;;;3.63;2.00;;;20.30;61.70;;;;;;5033691;28;20044;-70
2021/08/30 02:39:47;;;;;;;2.90;1.90;;;20.30;61.80;;;;;;5034542;28;20037;-70
2021/08/30 02:42:15;;;;;;;2.95;1.90;;;20.20;61.80;;;;;;5033953;28;20026;-70
2021/08/30 02:44:43;;;;;;;5.93;2.35;;;20.30;61.90;;;;;;5033563;28;20045;-70
2021/08/30 02:47:12;;;;;;;2.83;1.95;;;20.20;61.70;;;;;;5034508;28;20423;-70
2021/08/30 02:49:40;;;;;;;5.70;2.10;;;20.20;61.90;;;;;;5033507;28;20462;-70
2021/08/30 02:52:10;;;;;;;3.80;2.00;;;20.20;62.00;;;;;;5034319;28;20044;-70
2021/08/30 02:54:37;;;;;;;3.22;2.00;;;20.20;62.10;;;;;;5016211;28;20040;-70
2021/08/30 02:57:05;;;;;;;3.25;2.00;;;20.20;62.20;;;;;;5033270;28;20034;-70
2021/08/30 02:59:33;;;;;;;2.75;1.77;;;20.20;62.30;;;;;;5034053;28;20033;-69
2021/08/30 03:02:01;;;;;;;4.40;2.20;;;20.10;62.30;;;;;;5034582;28;20029;-70
2021/08/30 03:04:29;;;;;;;3.55;2.20;;;20.10;62.40;;;;;;5034423;28;20384;-70
2021/08/30 03:06:58;;;;;;;4.38;2.47;;;20.10;62.60;;;;;;5034360;28;20029;-70
2021/08/30 03:09:24;;;;;;;4.07;2.30;;;20.10;62.80;;;;;;5033808;28;20030;-70
2021/08/30 03:11:53;;;;;;;5.53;2.03;;;20.10;62.80;;;;;;5032417;28;20037;-70
2021/08/30 03:14:25;;;;;;;4.57;2.35;;;20.10;62.90;;;;;;5034010;28;20037;-70
2021/08/30 03:16:55;;;;;;;3.58;2.42;;;20.10;63.00;;;;;;5034011;28;20033;-70
2021/08/30 03:19:23;;;;;;;6.43;2.30;;;20.10;63.10;;;;;;5033039;28;20040;-70
2021/08/30 03:21:50;;;;;;;4.72;2.33;;;20.00;63.20;;;;;;5016176;28;20056;-70
2021/08/30 03:24:21;;;;;;;3.58;2.22;;;20.00;63.30;;;;;;5033783;28;20030;-71
2021/08/30 03:26:52;;;;;;;2.85;2.17;;;20.00;63.20;;;;;;5033527;28;20029;-70
2021/08/30 03:29:20;;;;;;;5.20;2.35;;;20.00;63.20;;;;;;5032629;28;20402;-70
2021/08/30 03:31:49;;;;;;;4.15;2.10;;;20.00;63.10;;;;;;5032616;28;20410;-69
2021/08/30 03:34:17;;;;;;;4.45;2.30;;;20.00;63.00;;;;;;5032802;28;20033;-70
2021/08/30 03:36:45;;;;;;;4.18;2.17;;;20.00;63.00;;;;;;5033561;28;20056;-69
2021/08/30 03:39:13;;;;;;;3.15;1.80;;;20.00;63.00;;;;;;5033244;28;20403;-69
2021/08/30 03:41:41;;;;;;;4.20;2.60;;;20.00;63.00;;;;;;5033648;28;20029;-69
2021/08/30 03:44:09;;;;;;;4.93;2.25;;;19.90;62.90;;;;;;5033302;28;20029;-69
2021/08/30 03:46:37;;;;;;;2.80;1.95;;;19.90;63.00;;;;;;5033470;28;20470;-69
2021/08/30 03:49:05;;;;;;;2.50;1.92;;;19.90;62.80;;;;;;5031919;28;20053;-69
2021/08/30 03:51:34;;;;;;;4.85;2.05;;;19.90;63.00;;;;;;5033457;28;20037;-69
2021/08/30 03:54:03;;;;;;;2.53;1.60;;;19.90;63.10;;;;;;5031649;28;20049;-70
2021/08/30 03:56:30;;;;;;;5.05;2.20;;;19.90;63.20;;;;;;5033180;28;20044;-69
2021/08/30 03:58:58;;;;;;;4.32;2.13;;;19.90;63.30;;;;;;5031804;28;20033;-69
2021/08/30 04:01:25;;;;;;;10.60;2.20;;;19.90;63.40;;;;;;5032617;28;20351;-69
2021/08/30 04:03:55;;;;;;;4.35;2.20;;;19.80;64.10;;;;;;5033030;28;20048;-69
2021/08/30 04:06:24;;;;;;;4.65;2.67;;;19.80;65.10;;;;;;5032741;28;20032;-69
2021/08/30 04:08:51;;;;;;;3.45;2.63;;;19.70;65.70;;;;;;5031373;28;20068;-69
2021/08/30 04:11:19;;;;;;;2.80;2.22;;;19.70;65.90;;;;;;5031902;28;20042;-69
2021/08/30 04:13:46;;;;;;;5.13;2.30;;;19.60;66.20;;;;;;5033049;28;20029;-68
2021/08/30 04:16:12;;;;;;;3.08;2.30;;;19.60;66.70;;;;;;5031631;28;20044;-70
2021/08/30 04:18:39;;;;;;;5.47;2.42;;;19.50;67.30;;;;;;5032791;28;20044;-70
2021/08/30 04:21:05;;;;;;;3.80;1.98;;;19.40;67.60;;;;;;5032911;28;20367;-70
2021/08/30 04:23:32;;;;;;;5.00;2.92;;;19.40;68.00;;;;;;5032857;28;20037;-70
2021/08/30 04:25:58;;;;;;;5.55;2.60;;;19.30;68.50;;;;;;5031516;28;20032;-70
2021/08/30 04:28:25;;;;;;;5.55;2.10;;;19.30;68.90;;;;;;5032894;28;20029;-70
2021/08/30 04:30:53;;;;;;;5.53;2.60;;;19.20;69.20;;;;;;5032303;28;20049;-70
2021/08/30 04:33:22;;;;;;;6.20;2.65;;;19.20;69.60;;;;;;5030960;28;20060;-70
2021/08/30 04:35:49;;;;;;;4.18;2.47;;;19.20;69.80;;;;;;5031375;28;20046;-69
2021/08/30 04:38:16;;;;;;;4.53;2.38;;;19.10;69.80;;;;;;5032669;28;20041;-69
2021/08/30 04:40:42;;;;;;;7.53;2.42;;;19.10;70.30;;;;;;5032230;28;20466;-69
2021/08/30 04:43:10;;;;;;;6.00;2.20;;;19.10;70.60;;;;;;5031334;28;20045;-69
2021/08/30 04:45:37;;;;;;;5.22;2.90;;;19.00;70.80;;;;;;5032042;28;20030;-69
2021/08/30 04:48:07;;;;;;;4.60;2.40;;;19.00;70.70;;;;;;5030556;28;20370;-70
2021/08/30 04:50:34;;;;;;;6.13;2.58;;;19.00;70.60;;;;;;5032503;28;20029;-69
2021/08/30 04:53:02;;;;;;;4.40;2.20;;;19.00;70.80;;;;;;5031008;28;20057;-69
2021/08/30 04:55:29;;;;;;;4.80;2.45;;;19.00;71.20;;;;;;5030914;28;20042;-70
2021/08/30 04:57:56;;;;;;;3.33;2.20;;;19.00;70.70;;;;;;5031890;28;20048;-69
2021/08/30 05:00:22;;;;;;;4.95;2.38;;;19.00;70.30;;;;;;5032506;28;20025;-70
2021/08/30 05:02:49;;;;;;;3.75;2.50;;;19.10;70.30;;;;;;5030676;28;20045;-69
2021/08/30 05:05:15;;;;;;;5.55;2.50;;;19.10;70.10;;;;;;5032518;28;20033;-69
2021/08/30 05:07:42;;;;;;;3.42;2.40;;;19.10;69.70;;;;;;5032183;28;20385;-69
2021/08/30 05:10:08;;;;;;;4.55;2.08;;;19.20;68.30;;;;;;5032285;28;20402;-69
2021/08/30 05:12:35;;;;;;;4.70;2.13;;;19.20;67.60;;;;;;5030299;28;20045;-69
2021/08/30 05:15:02;;;;;;;3.20;1.85;;;19.30;67.10;;;;;;5032255;28;20033;-69
2021/08/30 05:17:29;;;;;;;3.53;2.30;;;19.40;66.80;;;;;;5031629;28;20493;-70
2021/08/30 05:19:55;;;;;;;4.40;1.88;;;19.40;66.50;;;;;;5034883;28;20033;-70
2021/08/30 05:22:21;;;;;;;3.40;1.83;;;19.40;66.10;;;;;;5036437;28;20045;-70
2021/08/30 05:24:48;;;;;;;2.75;1.60;;;19.50;65.90;;;;;;5036233;28;20040;-70
2021/08/30 05:27:14;;;;;;;2.97;2.05;;;19.50;65.70;;;;;;5035090;28;20037;-71
2021/08/30 05:29:41;;;;;;;5.15;2.35;;;19.50;65.40;;;;;;5018090;28;20441;-71
2021/08/30 05:32:08;;;;;;;3.63;2.35;;;19.50;65.60;;;;;;5036378;28;20037;-70
2021/08/30 05:34:34;;;;;;;4.32;1.67;;;19.40;65.90;;;;;;5034795;28;20033;-71
2021/08/30 05:37:01;;;;;;;3.30;1.95;;;19.50;65.80;;;;;;5034602;28;20096;-68
2021/08/30 05:39:27;;;;;;;3.65;2.00;;;19.50;65.90;;;;;;5035370;28;20363;-70
2021/08/30 05:41:54;;;;;;;3.35;2.08;;;19.50;65.90;;;;;;5036287;28;20033;-69
2021/08/30 05:44:20;;;;;;;3.60;2.10;;;19.50;65.90;;;;;;5035566;28;20034;-70
2021/08/30 05:46:48;;;;;;;3.33;2.03;;;19.50;65.90;;;;;;5036303;28;20040;-71
2021/08/30 05:49:14;;;;;;;3.45;2.25;;;19.50;65.80;;;;;;5034347;28;20116;-69
2021/08/30 05:51:41;;;;;;;4.10;2.13;;;19.50;65.90;;;;;;5035857;28;20041;-69
2021/08/30 05:54:07;;;;;;;3.92;2.03;;;19.50;66.00;;;;;;5034566;28;20505;-70
2021/08/30 05:56:34;;;;;;;3.40;2.10;;;19.30;66.80;;;;;;5035589;28;20044;-69
2021/08/30 05:59:00;;;;;;;4.47;2.13;;;19.30;67.00;;;;;;5034141;28;20041;-70
2021/08/30 06:01:27;;;;;;;3.17;2.13;;;19.30;67.10;;;;;;5034121;28;20072;-70
2021/08/30 06:03:54;;;;;;;4.22;2.30;;;19.30;67.40;;;;;;5034399;28;20036;-70
2021/08/30 06:06:20;;;;;;;3.97;2.30;;;19.40;67.90;;;;;;5033897;28;20037;-69
2021/08/30 06:08:47;;;;;;;4.93;2.60;;;19.40;68.10;;;;;;5035474;28;20038;-69
2021/08/30 06:11:13;;;;;;;5.55;2.58;;;19.40;68.20;;;;;;5034909;28;20025;-69
2021/08/30 06:13:40;;;;;;;8.48;2.67;;;19.40;68.40;;;;;;5035066;28;20136;-70
2021/08/30 06:16:06;;;;;;;4.18;2.13;;;19.40;68.10;;;;;;5033492;28;20049;-70
2021/08/30 06:18:32;;;;;;;4.50;2.60;;;19.50;67.30;;;;;;5035154;28;20048;-69
2021/08/30 06:20:59;;;;;;;4.13;1.90;;;19.50;66.80;;;;;;5034900;28;20025;-70
2021/08/30 06:23:26;;;;;;;2.78;2.17;;;19.50;66.70;;;;;;5035559;28;20033;-70
2021/08/30 06:25:52;;;;;;;4.90;3.03;;;19.50;66.80;;;;;;5034954;28;20022;-70
2021/08/30 06:28:19;;;;;;;3.97;2.45;;;19.60;66.40;;;;;;5034816;28;20041;-69
2021/08/30 06:30:45;;;;;;;5.93;2.38;;;19.60;66.50;;;;;;5034670;28;20053;-69
2021/08/30 06:33:12;;;;;;;3.78;2.50;;;19.70;66.20;;;;;;5034937;28;20041;-69
2021/08/30 06:35:42;;;;;;;2.95;1.77;;;19.80;66.00;;;;;;5034717;28;20048;-69
2021/08/30 06:38:11;;;;;;;4.18;1.98;;;20.00;65.70;;;;;;5033555;28;20397;-70
2021/08/30 06:40:38;;;;;;;3.60;2.50;;;20.10;65.20;;;;;;5033239;28;20041;-69
2021/08/30 06:43:05;;;;;;;7.07;2.20;;;20.20;64.70;;;;;;5033533;28;20373;-70
2021/08/30 06:45:32;;;;;;;4.28;2.55;;;20.30;64.20;;;;;;5034621;28;20041;-69
2021/08/30 06:47:59;;;;;;;4.20;2.53;;;20.40;63.70;;;;;;5033317;28;20025;-69
2021/08/30 06:50:26;;;;;;;3.45;2.70;;;20.50;63.00;;;;;;5033816;28;20049;-70
2021/08/30 06:52:54;;;;;;;4.63;2.80;;;20.50;62.90;;;;;;5033365;28;20037;-70
2021/08/30 06:55:20;;;;;;;4.25;2.28;;;20.70;62.70;;;;;;5016877;28;20049;-70
2021/08/30 06:57:47;;;;;;;4.55;2.10;;;20.80;62.40;;;;;;5032544;28;20049;-71
2021/08/30 07:00:17;;;;;;;3.28;2.47;;;20.90;62.10;;;;;;5034370;28;20394;-69
2021/08/30 07:02:44;;;;;;;6.00;2.53;;;21.00;62.10;;;;;;5034426;28;20033;-71
2021/08/30 07:05:11;;;;;;;4.93;2.85;;;21.20;62.10;;;;;;5033303;28;20033;-69
2021/08/30 07:07:38;;;;;;;4.45;2.42;;;21.20;61.70;;;;;;5034331;28;20029;-68
2021/08/30 07:10:05;;;;;;;3.67;2.20;;;21.40;61.40;;;;;;5032590;28;20033;-69
2021/08/30 07:12:32;;;;;;;5.55;2.17;;;21.40;60.80;;;;;;5034173;28;20393;-66
2021/08/30 07:14:58;;;;;;;10.20;2.67;;;21.50;60.60;;;;;;5034452;28;20037;-62
2021/08/30 07:17:25;;;;;;;5.10;2.20;;;21.60;60.70;;;;;;5034361;28;20477;-67
2021/08/30 07:19:52;;;;;;;3.58;2.13;;;21.70;60.30;;;;;;5032757;28;20041;-65
2021/08/30 07:22:18;;;;;;;9.02;2.55;;;21.80;60.00;;;;;;5033935;28;20100;-64
2021/08/30 07:24:45;;;;;;;5.13;2.97;;;21.90;59.80;;;;;;5034239;28;20469;-65
2021/08/30 07:27:12;;;;;;;4.03;2.40;;;21.80;59.90;;;;;;5034243;28;20037;-64
2021/08/30 07:29:38;;;;;;;4.22;2.95;;;21.80;60.30;;;;;;5032886;28;20398;-66
2021/08/30 07:32:05;;;;;;;5.72;2.80;;;21.80;59.90;;;;;;5033759;28;20038;-67
2021/08/30 07:34:31;;;;;;;4.80;2.67;;;21.90;60.30;;;;;;5034054;28;20492;-64
2021/08/30 07:36:58;;;;;;;5.68;3.35;;;21.90;60.50;;;;;;5033724;28;20038;-64
2021/08/30 07:39:24;;;;;;;5.00;3.20;;;21.90;60.10;;;;;;5033508;28;20025;-64
2021/08/30 07:41:51;;;;;;;7.47;3.42;;;22.00;60.20;;;;;;5033144;28;20030;-65
2021/08/30 07:44:18;;;;;;;7.55;3.97;;;22.10;60.00;;;;;;5032816;28;20512;-66
2021/08/30 07:46:45;;;;;;;5.50;3.50;;;22.10;59.70;;;;;;5033215;28;20040;-65
2021/08/30 07:49:11;;;;;;;7.88;3.50;;;22.00;59.30;;;;;;5016060;28;20053;-64
2021/08/30 07:51:39;;;;;;;4.75;3.45;;;22.00;59.70;;;;;;5033262;28;20025;-66
2021/08/30 07:54:06;;;;;;;5.78;3.92;;;22.10;60.80;;;;;;5033625;28;20049;-64
2021/08/30 07:56:38;;;;;;;4.35;3.75;;;22.10;59.90;;;;;;5033583;28;20036;-65
2021/08/30 07:59:06;;;;;;;5.63;4.15;;;22.20;60.00;;;;;;5033707;28;20037;-64
2021/08/30 08:01:32;;;;;;;5.72;4.10;;;22.10;59.70;;;;;;5033361;28;20513;-66
2021/08/30 08:03:59;;;;;;;11.95;7.60;;;22.20;59.70;;;;;;5045184;28;20044;-65
2021/08/30 08:06:25;;;;;;;8.88;6.30;;;22.30;59.50;;;;;;5048207;28;20024;-66
2021/08/30 08:08:52;;;;;;;7.47;4.97;;;22.50;59.10;;;;;;5051133;28;20377;-66
2021/08/30 08:11:18;;;;;;;11.25;5.88;;;22.50;58.30;;;;;;5050573;28;20359;-67
2021/08/30 08:13:57;;;;;;;11.82;5.97;;;22.50;58.70;;;;;;5050888;28;20474;-67
2021/08/30 08:16:24;;;;;;;7.47;5.15;;;22.60;58.40;;;;;;5050655;28;20055;-68
2021/08/30 08:18:52;;;;;;;9.30;6.03;;;22.50;57.90;;;;;;5051993;28;20037;-69
2021/08/30 08:21:21;;;;;;;8.07;5.13;;;22.50;58.10;;;;;;5051250;28;20044;-68
2021/08/30 08:23:48;;;;;;;8.32;5.57;;;22.60;58.00;;;;;;5052757;28;20024;-68
2021/08/30 08:26:14;;;;;;;9.57;5.07;;;22.60;58.10;;;;;;5051901;28;20068;-69
2021/08/30 08:28:41;;;;;;;9.63;5.57;;;22.80;57.80;;;;;;5050026;28;20041;-70
2021/08/30 08:31:07;;;;;;;10.10;4.50;;;22.80;57.30;;;;;;5050462;28;20053;-69
2021/08/30 08:33:34;;;;;;;6.18;4.22;;;22.90;57.00;;;;;;5051755;28;20036;-72
2021/08/30 08:36:00;;;;;;;8.68;5.60;;;22.90;56.60;;;;;;5051620;28;20021;-71
2021/08/30 08:38:27;;;;;;;7.97;5.00;;;23.00;56.50;;;;;;5050650;28;20048;-68
2021/08/30 08:40:54;;;;;;;6.88;5.00;;;23.10;56.20;;;;;;5051521;28;20087;-67
2021/08/30 08:43:21;;;;;;;6.60;5.10;;;23.10;56.00;;;;;;5051938;28;20107;-69
2021/08/30 08:45:50;;;;;;;8.10;5.38;;;23.10;55.50;;;;;;5052298;28;20032;-68
2021/08/30 08:48:21;;;;;;;8.30;6.07;;;23.10;55.50;;;;;;5052473;28;20044;-68
2021/08/30 08:50:47;;;;;;;;;;;23.10;55.00;;;;;;5052298;28;20033;-67
2021/08/30 08:53:14;;;;;;;8.25;6.20;;;22.90;55.70;;;;;;5052157;28;19908;-67
2021/08/30 08:55:41;;;;;;;8.00;5.55;;;23.00;56.00;;;;;;5051235;28;20036;-68
2021/08/30 08:58:14;;;;;;;8.48;6.32;;;23.20;55.90;;;;;;5033847;28;20056;-69
2021/08/30 09:00:43;;;;;;;10.63;6.15;;;23.20;55.60;;;;;;5051497;28;20025;-68
2021/08/30 09:03:17;;;;;;;14.30;7.90;;;23.10;55.80;;;;;;5052684;28;20059;-68
2021/08/30 09:05:44;;;;;;;11.10;7.18;;;23.20;55.30;;;;;;5050530;28;20255;-68
2021/08/30 09:08:29;;;;;;;8.15;5.47;;;23.10;55.00;;;;;;5050640;28;20037;-69
2021/08/30 09:10:58;;;;;;;8.07;6.28;;;23.30;55.00;;;;;;5050676;28;20028;-67
2021/08/30 09:13:29;;;;;;;9.02;7.65;;;23.30;54.60;;;;;;5051835;28;20044;-70
2021/08/30 09:15:59;;;;;;;8.00;6.68;;;23.40;54.70;;;;;;5052129;28;20471;-67
2021/08/30 09:18:31;;;;;;;8.15;7.28;;;23.40;53.90;;;;;;5052368;28;20044;-68
2021/08/30 09:21:09;;;;;;;7.80;5.13;;;23.20;54.40;;;;;;5050157;28;20120;-68
2021/08/30 09:23:39;;;;;;;6.85;5.13;;;23.30;54.70;;;;;;5034585;28;20397;-68
2021/08/30 09:26:06;;;;;;;9.15;5.53;;;23.40;54.70;;;;;;5050964;28;20048;-68
2021/08/30 09:28:36;;;;;;;6.78;5.90;;;23.50;54.30;;;;;;5051869;28;20040;-67
2021/08/30 09:31:03;;;;;;;7.55;5.28;;;23.50;54.50;;;;;;5052472;28;20049;-68
2021/08/30 09:33:29;;;;;;;15.18;8.23;;;23.60;54.60;;;;;;5052243;28;20365;-68
2021/08/30 09:36:00;;;;;;;7.13;4.47;;;23.50;54.20;;;;;;5051151;28;20037;-67
2021/08/30 09:38:35;;;;;;;8.13;4.15;;;23.60;54.30;;;;;;5052177;28;20041;-68
2021/08/30 09:41:09;;;;;;;7.93;5.15;;;23.80;54.00;;;;;;5050840;28;20028;-68
2021/08/30 09:43:36;;;;;;;10.30;5.90;;;23.70;52.80;;;;;;5051671;28;20025;-68
2021/08/30 09:46:04;;;;;;;9.60;4.82;;;23.80;52.80;;;;;;5051980;28;20032;-68
2021/08/30 09:48:33;;;;;;;8.95;4.25;;;23.80;53.10;;;;;;5051867;28;20056;-68
2021/08/30 09:51:05;;;;;;;8.32;4.38;;;24.00;53.30;;;;;;5050095;28;20025;-69
2021/08/30 09:53:34;;;;;;;6.20;4.20;;;24.00;52.70;;;;;;5051152;28;20033;-67
2021/08/30 09:56:01;;;;;;;7.05;5.50;;;24.10;52.80;;;;;;5050581;28;20033;-68
2021/08/30 09:58:30;;;;;;;14.38;8.30;;;24.10;52.50;;;;;;5033769;28;20049;-68
2021/08/30 10:00:59;;;;;;;9.38;6.38;;;24.00;52.50;;;;;;5051580;28;20032;-69
2021/08/30 10:03:31;;;;;;;10.63;5.03;;;23.90;52.40;;;;;;5052069;28;20037;-69
2021/08/30 10:05:59;;;;;;;7.63;5.28;;;23.90;52.80;;;;;;5053611;28;20021;-68
2021/08/30 10:08:27;;;;;;;8.00;5.07;;;24.00;52.70;;;;;;5055226;28;20025;-68
2021/08/30 10:10:53;;;;;;;7.55;3.85;;;24.00;52.50;;;;;;5055452;28;20366;-67
2021/08/30 10:13:20;;;;;;;9.48;6.18;;;24.10;52.60;;;;;;5053265;28;20043;-68
2021/08/30 10:15:51;;;;;;;7.95;3.88;;;24.20;52.50;;;;;;5054446;28;20378;-69
2021/08/30 10:18:19;;;;;;;6.82;5.40;;;24.20;52.30;;;;;;5054035;28;20033;-69
2021/08/30 10:20:50;;;;;;;7.82;5.47;;;24.30;52.10;;;;;;5053696;28;20047;-69
2021/08/30 10:23:18;;;;;;;;;;;24.20;51.10;;;;;;5055902;28;20051;-69
2021/08/30 10:25:57;;;;;;;7.30;5.25;;;24.20;51.40;;;;;;5037808;28;19909;-69
2021/08/30 10:28:37;;;;;;;11.38;7.65;;;24.10;51.60;;;;;;5054995;28;20029;-68
2021/08/30 10:31:16;;;;;;;11.25;5.82;;;24.20;51.70;;;;;;5055311;28;20060;-68
2021/08/30 10:33:55;;;;;;;11.05;3.78;;;24.20;51.50;;;;;;5053226;28;20059;-71
2021/08/30 10:36:26;;;;;;;8.57;4.47;;;24.40;51.40;;;;;;5053359;28;20045;-68
2021/08/30 10:38:57;;;;;;;9.18;4.85;;;24.30;51.00;;;;;;5054894;28;20041;-68
2021/08/30 10:41:34;;;;;;;9.60;5.10;;;24.40;51.00;;;;;;5053254;28;20037;-68
2021/08/30 10:44:11;;;;;;;10.80;6.18;;;24.40;50.50;;;;;;5054446;28;20048;-68
2021/08/30 12:46:43;;;;;;;6.70;4.60;;;25.50;47.00;;;;;;5052097;28;20393;-55
2021/08/30 12:49:10;;;;;;;16.17;11.80;;;25.50;47.90;;;;;;5051453;28;20052;-54
2021/08/30 12:51:37;;;;;;;23.13;20.52;;;25.60;47.70;;;;;;5051982;28;20039;-56
2021/08/30 12:54:03;;;;;;;23.65;19.30;;;25.60;47.70;;;;;;5034551;28;20354;-55
2021/08/30 12:56:30;;;;;;;21.00;16.35;;;25.60;47.80;;;;;;5051898;28;20387;-55
2021/08/30 12:58:56;;;;;;;16.02;11.70;;;25.70;47.90;;;;;;5051102;28;20049;-56
2021/08/30 13:01:23;;;;;;;9.45;6.97;;;25.60;48.00;;;;;;5034003;28;20044;-54
2021/08/30 13:03:49;;;;;;;9.57;5.50;;;25.60;48.00;;;;;;5052386;28;20025;-48
2021/08/30 13:06:16;;;;;;;5.95;4.15;;;25.60;47.80;;;;;;5052186;28;20029;-51
2021/08/30 13:08:42;;;;;;;8.18;4.10;;;25.60;48.00;;;;;;5052131;28;20486;-53
2021/08/30 13:11:16;;;;;;;9.90;3.97;;;25.60;48.10;;;;;;5051702;28;20389;-54
2021/08/30 13:13:47;;;;;;;7.38;4.68;;;25.60;47.90;;;;;;5052742;28;20036;-54
2021/08/30 13:16:13;;;;;;;9.00;4.18;;;25.70;48.10;;;;;;5034515;28;20380;-55
2021/08/30 13:18:40;;;;;;;6.07;3.10;;;25.70;48.30;;;;;;5050979;28;20056;-51
2021/08/30 13:21:06;;;;;;;5.15;2.70;;;25.60;48.00;;;;;;5051972;28;20096;-54
2021/08/30 13:23:33;;;;;;;4.80;3.08;;;25.60;47.20;;;;;;5050565;28;20041;-54
2021/08/30 13:25:59;;;;;;;3.90;2.58;;;25.70;47.40;;;;;;5033715;28;20037;-52
2021/08/30 13:28:26;;;;;;;7.43;2.90;;;25.70;47.30;;;;;;5033884;28;20385;-53
2021/08/30 13:30:52;;;;;;;4.13;2.60;;;25.70;47.40;;;;;;5051675;28;20044;-53
2021/08/30 13:33:18;;;;;;;4.13;3.00;;;25.70;47.40;;;;;;5051769;28;20037;-55
2021/08/30 13:35:45;;;;;;;4.57;2.95;;;25.70;46.50;;;;;;5051826;28;20036;-54
2021/08/30 13:38:11;;;;;;;3.58;2.25;;;25.80;46.20;;;;;;5051287;28;20033;-52
2021/08/30 13:40:38;;;;;;;4.82;2.60;;;25.80;46.00;;;;;;5053419;28;20335;-52
2021/08/30 13:43:04;;;;;;;7.45;2.85;;;25.80;46.60;;;;;;5054510;28;20049;-49
2021/08/30 13:45:31;;;;;;;6.93;2.45;;;25.80;46.90;;;;;;5048906;28;20091;-54
2021/08/30 13:47:58;;;;;;;6.85;2.95;;;25.80;46.90;;;;;;5074495;28;20048;-56
2021/08/30 13:50:25;;;;;;;6.85;3.08;;;25.80;46.80;;;;;;5074738;28;20060;-53
2021/08/30 13:52:54;;;;;;;6.60;2.67;;;25.90;46.90;;;;;;5074514;28;20369;-51
2021/08/30 13:55:22;;;;;;;6.53;2.97;;;25.90;47.00;;;;;;5075403;28;20032;-54
2021/08/30 13:57:48;;;;;;;5.00;3.00;;;25.80;47.20;;;;;;5075515;28;20032;-54
2021/08/30 14:00:15;;;;;;;7.00;3.00;;;25.70;47.30;;;;;;5075182;28;20036;-55
2021/08/30 14:02:42;;;;;;;7.78;3.20;;;25.70;47.40;;;;;;5075759;28;20032;-53
2021/08/30 14:05:10;;;;;;;7.28;2.85;;;25.80;47.50;;;;;;5074504;28;20047;-55
2021/08/30 14:07:37;;;;;;;4.20;2.95;;;25.80;47.40;;;;;;5074850;28;20445;-55
2021/08/30 14:10:04;;;;;;;5.20;3.15;;;25.80;47.40;;;;;;5040011;28;20404;-53
2021/08/30 14:12:31;;;;;;;5.60;2.70;;;25.80;47.20;;;;;;5057418;28;20052;-54
2021/08/30 14:14:57;;;;;;;8.55;3.60;;;25.70;47.40;;;;;;5074741;28;20035;-53
2021/08/30 14:17:24;;;;;;;6.70;2.40;;;25.80;47.50;;;;;;5075386;28;20036;-49
2021/08/30 14:19:50;;;;;;;7.60;2.90;;;25.80;47.70;;;;;;5075084;28;20036;-53
2021/08/30 14:22:17;;;;;;;4.80;2.50;;;25.80;47.80;;;;;;5074963;28;20029;-51
2021/08/30 14:24:46;;;;;;;4.13;2.72;;;25.80;47.70;;;;;;5075769;28;20032;-49
2021/08/30 14:27:15;;;;;;;5.05;2.60;;;25.80;47.80;;;;;;5075325;28;20052;-55
2021/08/30 14:29:41;;;;;;;4.85;2.65;;;25.90;48.70;;;;;;5056690;28;20115;-53
2021/08/30 14:32:08;;;;;;;4.35;2.45;;;25.90;47.90;;;;;;5074995;28;20056;-54
2021/08/30 14:34:35;;;;;;;4.22;2.90;;;25.90;48.20;;;;;;5075330;28;20040;-56
2021/08/30 14:37:02;;;;;;;3.83;2.72;;;25.90;47.60;;;;;;5074385;28;20028;-55
2021/08/30 14:39:28;;;;;;;4.50;2.67;;;25.90;47.10;;;;;;5074590;28;20037;-51
2021/08/30 14:41:55;;;;;;;4.00;2.67;;;25.90;46.10;;;;;;5056197;28;20047;-56
2021/08/30 14:44:21;;;;;;;3.75;2.55;;;25.90;45.90;;;;;;5074192;28;20032;-54
2021/08/30 14:46:47;;;;;;;4.95;2.35;;;25.80;46.90;;;;;;5074851;28;20377;-53
2021/08/30 14:49:14;;;;;;;5.25;2.75;;;25.90;47.40;;;;;;5074121;28;20418;-55
2021/08/30 14:51:43;;;;;;;5.85;2.70;;;25.90;47.50;;;;;;5073025;28;20040;-51
2021/08/30 14:54:10;;;;;;;4.88;2.30;;;25.90;47.60;;;;;;5074960;28;20377;-53